createdAt,value
2023-01-11T00:01:08.649Z,98566.31
2023-01-11T00:03:56.822Z,98574.00
2023-01-11T00:06:44.571Z,98574.94
2023-01-11T00:09:33.561Z,98574.94
2023-01-11T00:12:22.907Z,98574.94
2023-01-11T00:15:12.152Z,98571.25
2023-01-11T00:18:02.192Z,98574.28
2023-01-11T00:20:49.837Z,98574.09
2023-01-11T00:23:39.612Z,98567.91
2023-01-11T00:26:27.307Z,98565.28
2023-01-11T00:29:17.036Z,98562.56
2023-01-11T00:32:04.745Z,98567.72
2023-01-11T00:34:54.459Z,98564.13
2023-01-11T00:37:42.639Z,98552.66
2023-01-11T00:40:30.817Z,98547.41
2023-01-11T00:43:36.251Z,98550.78
2023-01-11T00:46:57.096Z,98535.03
2023-01-11T00:49:45.730Z,98535.03
2023-01-11T00:52:33.411Z,98527.13
2023-01-11T00:55:21.386Z,98528.09
2023-01-11T00:58:09.059Z,98522.00
2023-01-11T01:00:57.000Z,98522.00
2023-01-11T01:03:46.200Z,98523.88
2023-01-11T01:06:34.255Z,98521.56
2023-01-11T01:09:22.285Z,98523.38
2023-01-11T01:12:12.797Z,98525.34
2023-01-11T01:14:59.494Z,98518.63
2023-01-11T01:17:47.574Z,98522.22
2023-01-11T01:20:36.716Z,98521.47
2023-01-11T01:23:24.486Z,98521.38
2023-01-11T01:26:12.361Z,98518.63
2023-01-11T01:29:00.437Z,98518.53
2023-01-11T01:31:48.588Z,98516.72
2023-01-11T01:34:37.687Z,98512.00
2023-01-11T01:37:26.862Z,98512.97
2023-01-11T01:40:16.069Z,98507.72
2023-01-11T01:43:03.774Z,98511.06
2023-01-11T01:45:52.852Z,98506.53
2023-01-11T01:48:42.282Z,98499.63
2023-01-11T01:51:35.721Z,98495.94
2023-01-11T01:54:28.515Z,98492.34
2023-01-11T01:57:25.198Z,98490.47
2023-01-11T02:00:13.884Z,98491.31
2023-01-11T02:03:02.916Z,98487.53
2023-01-11T02:05:54.427Z,98486.56
2023-01-11T02:08:48.410Z,98486.47
2023-01-11T02:11:43.220Z,98487.22
2023-01-11T02:14:32.290Z,98491.41
2023-01-11T02:17:22.229Z,98475.53
2023-01-11T02:20:36.909Z,98475.53
2023-01-11T02:23:52.728Z,98462.28
2023-01-11T02:27:24.088Z,98457.97
2023-01-11T02:30:23.127Z,98456.06
2023-01-11T02:33:22.794Z,98456.81
2023-01-11T02:36:21.879Z,98452.41
2023-01-11T02:39:22.324Z,98439.97
2023-01-11T02:42:37.353Z,98440.09
2023-01-11T02:45:56.535Z,98447.03
2023-01-11T02:48:52.103Z,98437.47
2023-01-11T02:51:43.730Z,98430.31
2023-01-11T02:54:33.162Z,98435.69
2023-01-11T02:57:21.441Z,98431.16
2023-01-11T03:00:12.894Z,98433.69
2023-01-11T03:03:15.603Z,98435.13
2023-01-11T03:06:06.999Z,98438.59
2023-01-11T03:09:11.081Z,98425.22
2023-01-11T03:12:27.619Z,98427.63
2023-01-11T03:15:47.872Z,98413.56
2023-01-11T03:18:47.260Z,98409.03
2023-01-11T03:21:56.615Z,98413.34
2023-01-11T03:24:49.301Z,98416.59
2023-01-11T03:27:46.368Z,98408.59
2023-01-11T03:30:38.913Z,98406.59
2023-01-11T03:33:33.898Z,98392.47
2023-01-11T03:36:29.413Z,98388.78
2023-01-11T03:39:23.535Z,98380.56
2023-01-11T03:42:16.189Z,98377.00
2023-01-11T03:45:06.945Z,98370.66
2023-01-11T03:47:56.517Z,98371.50
2023-01-11T03:50:46.670Z,98361.00
2023-01-11T03:53:39.906Z,98367.94
2023-01-11T03:56:30.829Z,98361.59
2023-01-11T03:59:18.488Z,98360.53
2023-01-11T04:02:15.259Z,98347.38
2023-01-11T04:05:03.141Z,98348.09
2023-01-11T04:07:51.023Z,98354.69
2023-01-11T04:10:40.521Z,98351.13
2023-01-11T04:13:28.450Z,98352.69
2023-01-11T04:16:16.402Z,98352.47
2023-01-11T04:19:04.369Z,98350.75
2023-01-11T04:21:53.537Z,98341.94
2023-01-11T04:24:41.567Z,98341.72
2023-01-11T04:27:30.993Z,98352.47
2023-01-11T04:30:21.593Z,98350.53
2023-01-11T04:33:10.855Z,98349.38
2023-01-11T04:35:58.573Z,98343.78
2023-01-11T04:38:46.411Z,98340.28
2023-01-11T04:41:51.921Z,98340.06
2023-01-11T04:44:41.958Z,98337.19
2023-01-11T04:47:29.902Z,98340.53
2023-01-11T04:50:18.250Z,98343.66
2023-01-11T04:53:05.889Z,98334.81
2023-01-11T04:55:54.096Z,98337.22
2023-01-11T04:58:42.121Z,98330.16
2023-01-11T05:01:31.311Z,98324.78
2023-01-11T05:04:19.236Z,98331.59
2023-01-11T05:07:08.648Z,98321.81
2023-01-11T05:09:56.167Z,98324.19
2023-01-11T05:12:44.267Z,98319.75
2023-01-11T05:15:32.367Z,98324.09
2023-01-11T05:18:21.591Z,98323.13
2023-01-11T05:21:10.757Z,98326.47
2023-01-11T05:23:59.375Z,98318.72
2023-01-11T05:26:48.493Z,98318.09
2023-01-11T05:29:36.684Z,98312.81
2023-01-11T05:32:24.889Z,98311.16
2023-01-11T05:35:14.022Z,98311.16
2023-01-11T05:38:02.124Z,98300.63
2023-01-11T05:40:56.273Z,98295.13
2023-01-11T05:44:04.134Z,98298.47
2023-01-11T05:46:51.780Z,98306.38
2023-01-11T05:49:40.709Z,98302.06
2023-01-11T05:52:29.822Z,98294.16
2023-01-11T05:55:17.781Z,98295.13
2023-01-11T05:58:07.584Z,98291.53
2023-01-11T06:00:57.183Z,98287.13
2023-01-11T06:03:47.919Z,98284.63
2023-01-11T06:06:36.156Z,98291.53
2023-01-11T06:09:25.201Z,98285.44
2023-01-11T06:12:13.099Z,98281.00
2023-01-11T06:15:01.144Z,98287.94
2023-01-11T06:17:48.770Z,98287.94
2023-01-11T06:20:37.201Z,98279.13
2023-01-11T06:23:26.104Z,98283.53
2023-01-11T06:26:17.342Z,98287.72
2023-01-11T06:29:05.112Z,98283.28
2023-01-11T06:31:53.033Z,98285.81
2023-01-11T06:34:40.976Z,98282.09
2023-01-11T06:37:29.111Z,98281.84
2023-01-11T06:40:17.338Z,98280.75
2023-01-11T06:43:07.214Z,98267.47
2023-01-11T06:45:55.099Z,98270.13
2023-01-11T06:48:43.224Z,98268.22
2023-01-11T06:51:31.285Z,98264.63
2023-01-11T06:54:23.030Z,98259.22
2023-01-11T06:57:10.954Z,98258.19
2023-01-11T07:00:00.478Z,98255.41
2023-01-11T07:02:49.057Z,98250.63
2023-01-11T07:05:48.659Z,98253.00
2023-01-11T07:08:36.492Z,98254.19
2023-01-11T07:11:32.211Z,98260.06
2023-01-11T07:14:30.647Z,98256.56
2023-01-11T07:17:49.120Z,98257.31
2023-01-11T07:20:37.171Z,98263.16
2023-01-11T07:23:25.241Z,98258.59
2023-01-11T07:26:18.421Z,98251.44
2023-01-11T07:29:07.928Z,98253.44
2023-01-11T07:31:55.767Z,98256.53
2023-01-11T07:34:45.067Z,98254.16
2023-01-11T07:37:34.150Z,98252.44
2023-01-11T07:40:22.150Z,98255.44
2023-01-11T07:43:14.565Z,98254.22
2023-01-11T07:46:03.033Z,98251.31
2023-01-11T07:48:50.864Z,98242.31
2023-01-11T07:51:40.415Z,98252.63
2023-01-11T07:54:28.303Z,98247.09
2023-01-11T07:57:16.291Z,98237.16
2023-01-11T08:00:05.006Z,98239.41
2023-01-11T08:02:54.043Z,98237.22
2023-01-11T08:05:42.158Z,98248.38
2023-01-11T08:08:31.371Z,98248.13
2023-01-11T08:11:39.048Z,98240.91
2023-01-11T08:14:44.671Z,98233.69
2023-01-11T08:17:35.642Z,98230.69
2023-01-11T08:20:23.353Z,98237.63
2023-01-11T08:23:12.076Z,98235.00
2023-01-11T08:26:01.586Z,98236.56
2023-01-11T08:28:49.157Z,98226.56
2023-01-11T08:31:37.373Z,98234.09
2023-01-11T08:34:29.165Z,98229.56
2023-01-11T08:37:17.349Z,98230.13
2023-01-11T08:40:06.001Z,98222.69
2023-01-11T08:42:58.041Z,98231.75
2023-01-11T08:45:47.562Z,98229.72
2023-01-11T08:48:37.670Z,98230.25
2023-01-11T08:51:25.559Z,98233.22
2023-01-11T08:54:16.891Z,98237.41
2023-01-11T08:57:04.722Z,98231.31
2023-01-11T08:59:54.090Z,98224.09
2023-01-11T09:02:42.159Z,98225.47
2023-01-11T09:05:30.519Z,98217.19
2023-01-11T09:08:18.617Z,98226.41
2023-01-11T09:11:26.794Z,98218.09
2023-01-11T09:14:14.509Z,98221.03
2023-01-11T09:17:04.905Z,98217.28
2023-01-11T09:19:52.836Z,98211.72
2023-01-11T09:22:40.800Z,98207.75
2023-01-11T09:25:28.710Z,98207.19
2023-01-11T09:28:16.498Z,98209.44
2023-01-11T09:31:04.652Z,98201.69
2023-01-11T09:33:54.080Z,98193.50
2023-01-11T09:36:43.069Z,98194.34
2023-01-11T09:39:31.126Z,98192.97
2023-01-11T09:42:37.582Z,98187.97
2023-01-11T09:45:30.515Z,98182.84
2023-01-11T09:48:28.853Z,98183.53
2023-01-11T09:51:19.906Z,98185.22
2023-01-11T09:54:12.239Z,98175.47
2023-01-11T09:57:13.152Z,98175.50
2023-01-11T10:00:11.387Z,98167.28
2023-01-11T10:03:39.183Z,98165.44
2023-01-11T10:06:34.545Z,98162.66
2023-01-11T10:18:39.202Z,98145.66
2023-01-11T10:19:39.953Z,98136.16
2023-01-11T10:22:36.846Z,98130.28
2023-01-11T10:25:33.944Z,98128.44
2023-01-11T10:28:31.873Z,98123.81
2023-01-11T10:31:44.835Z,98116.03
2023-01-11T10:34:59.694Z,98124.66
2023-01-11T10:38:07.193Z,98112.06
2023-01-11T10:41:06.436Z,98117.88
2023-01-11T10:44:05.018Z,98113.44
2023-01-11T10:46:55.210Z,98102.53
2023-01-11T10:49:49.534Z,98110.34
2023-01-11T10:52:48.077Z,98106.69
2023-01-11T10:55:46.290Z,98109.34
2023-01-11T10:58:57.867Z,98112.00
2023-01-11T11:02:01.638Z,98109.34
2023-01-11T11:05:16.310Z,98111.03
2023-01-11T11:08:13.797Z,98111.84
2023-01-11T11:11:08.699Z,98111.19
2023-01-11T11:14:03.491Z,98111.13
2023-01-11T11:17:05.894Z,98106.97
2023-01-11T11:19:54.530Z,98108.06
2023-01-11T11:22:42.975Z,98108.38
2023-01-11T11:25:33.591Z,98105.88
2023-01-11T11:28:32.240Z,98104.06
2023-01-11T11:31:20.675Z,98101.69
2023-01-11T11:34:09.927Z,98096.41
2023-01-11T11:37:03.711Z,98086.09
2023-01-11T11:39:53.220Z,98088.09
2023-01-11T11:42:41.042Z,98084.72
2023-01-11T11:45:30.468Z,98084.50
2023-01-11T11:48:19.019Z,98079.03
2023-01-11T11:51:11.915Z,98076.84
2023-01-11T11:54:00.565Z,98084.25
2023-01-11T11:56:49.939Z,98078.25
2023-01-11T11:59:37.754Z,98086.44
2023-01-11T12:02:31.726Z,98075.19
2023-01-11T12:05:19.878Z,98076.84
2023-01-11T12:08:08.111Z,98071.00
2023-01-11T12:10:59.720Z,98064.34
2023-01-11T12:14:04.083Z,98055.88
2023-01-11T12:16:51.742Z,98070.06
2023-01-11T12:19:45.237Z,98071.75
2023-01-11T12:22:35.420Z,98063.69
2023-01-11T12:25:25.293Z,98068.28
2023-01-11T12:28:28.346Z,98068.13
2023-01-11T12:31:23.621Z,98062.00
2023-01-11T12:34:27.185Z,98055.03
2023-01-11T12:37:27.926Z,98055.31
2023-01-11T12:40:26.951Z,98059.47
2023-01-11T12:43:38.773Z,98058.53
2023-01-11T12:46:53.596Z,98062.13
2023-01-11T12:49:47.383Z,98062.13
2023-01-11T12:53:02.046Z,98063.97
2023-01-11T12:56:02.129Z,98065.63
2023-01-11T12:58:54.810Z,98064.78
2023-01-11T13:01:51.083Z,98059.25
2023-01-11T13:04:59.961Z,98060.06
2023-01-11T13:08:03.041Z,98059.78
2023-01-11T13:11:02.159Z,98058.69
2023-01-11T13:13:57.535Z,98048.53
2023-01-11T13:16:54.985Z,98056.47
2023-01-11T13:19:49.618Z,98050.31
2023-01-11T13:22:41.447Z,98049.47
2023-01-11T13:25:34.029Z,98053.81
2023-01-11T13:28:30.714Z,98050.63
2023-01-11T13:31:19.951Z,98055.31
2023-01-11T13:34:15.311Z,98049.19
2023-01-11T13:37:08.761Z,98052.53
2023-01-11T13:40:02.686Z,98062.13
2023-01-11T13:42:55.640Z,98049.88
2023-01-11T13:45:49.674Z,98055.88
2023-01-11T13:48:43.720Z,98048.91
2023-01-11T13:51:37.931Z,98060.03
2023-01-11T13:54:35.729Z,98057.53
2023-01-11T13:57:31.353Z,98060.03
2023-01-11T14:00:27.657Z,98061.19
2023-01-11T14:03:26.316Z,98064.63
2023-01-11T14:06:43.015Z,98060.75
2023-01-11T14:10:14.449Z,98071.31
2023-01-11T14:13:41.999Z,98077.88
2023-01-11T14:16:39.856Z,98082.06
2023-01-11T14:19:34.705Z,98086.38
2023-01-11T14:22:35.494Z,98089.72
2023-01-11T14:25:27.786Z,98090.38
2023-01-11T14:28:38.947Z,98089.38
2023-01-11T14:31:53.112Z,98104.31
2023-01-11T14:35:02.384Z,98107.63
2023-01-11T14:38:28.973Z,98104.59
2023-01-11T14:41:47.408Z,98105.13
2023-01-11T14:44:53.962Z,98106.78
2023-01-11T14:48:05.591Z,98111.81
2023-01-11T14:51:16.586Z,98113.63
2023-01-11T14:54:07.899Z,98110.13
2023-01-11T14:56:57.405Z,98117.78
2023-01-11T14:59:45.578Z,98118.47
2023-01-11T15:02:33.481Z,98120.44
2023-01-11T15:05:38.546Z,98130.19
2023-01-11T15:08:28.333Z,98135.19
2023-01-11T15:11:38.166Z,98137.16
2023-01-11T15:14:33.886Z,98135.34
2023-01-11T15:17:43.246Z,98144.28
2023-01-11T15:20:33.622Z,98138.28
2023-01-11T15:23:24.871Z,98138.00
2023-01-11T15:26:13.797Z,98142.28
2023-01-11T15:29:03.390Z,98145.22
2023-01-11T15:32:07.753Z,98138.28
2023-01-11T15:35:11.333Z,98151.38
2023-01-11T15:38:12.659Z,98150.00
2023-01-11T15:41:22.019Z,98159.91
2023-01-11T15:44:36.177Z,98165.06
2023-01-11T15:47:50.719Z,98169.81
2023-01-11T15:51:05.170Z,98179.13
2023-01-11T15:54:25.699Z,98180.41
2023-01-11T15:57:33.025Z,98188.75
2023-01-11T16:00:57.645Z,98194.03
2023-01-11T16:04:01.161Z,98189.84
2023-01-11T16:06:55.705Z,98202.94
2023-01-11T16:10:11.663Z,98211.16
2023-01-11T16:13:19.768Z,98218.16
2023-01-11T16:16:18.607Z,98227.06
2023-01-11T16:19:14.941Z,98227.75
2023-01-11T16:22:05.614Z,98239.34
2023-01-11T16:24:59.846Z,98238.06
2023-01-11T16:27:55.071Z,98238.25
2023-01-11T16:30:43.393Z,98250.63
2023-01-11T16:33:34.453Z,98251.47
2023-01-11T16:36:24.616Z,98254.94
2023-01-11T16:39:14.634Z,98256.50
2023-01-11T16:42:06.654Z,98249.22
2023-01-11T16:45:00.198Z,98262.59
2023-01-11T16:48:04.689Z,98262.31
2023-01-11T16:51:01.851Z,98268.59
2023-01-11T16:53:59.216Z,98280.31
2023-01-11T16:56:49.331Z,98263.44
2023-01-11T16:59:38.778Z,98272.66
2023-01-11T17:02:31.870Z,98280.59
2023-01-11T17:05:20.364Z,98285.19
2023-01-11T17:08:26.729Z,98288.81
2023-01-11T17:11:26.611Z,98293.53
2023-01-11T17:14:38.084Z,98287.28
2023-01-11T17:17:28.076Z,98296.34
2023-01-11T17:20:22.033Z,98307.47
2023-01-11T17:23:15.416Z,98316.41
2023-01-11T17:26:03.380Z,98321.97
2023-01-11T17:28:53.544Z,98324.47
2023-01-11T17:31:42.011Z,98325.59
2023-01-11T17:34:34.136Z,98325.88
2023-01-11T17:37:23.249Z,98333.09
2023-01-11T17:40:23.757Z,98335.63
2023-01-11T17:43:41.062Z,98335.03
2023-01-11T17:46:29.025Z,98341.47
2023-01-11T17:49:24.812Z,98337.97
2023-01-11T17:52:21.293Z,98332.97
2023-01-11T17:55:17.753Z,98343.00
2023-01-11T17:58:20.371Z,98338.69
2023-01-11T18:01:18.753Z,98345.78
2023-01-11T18:04:06.492Z,98347.56
2023-01-11T18:07:06.187Z,98345.06
2023-01-11T18:10:03.136Z,98347.84
2023-01-11T18:12:56.592Z,98346.31
2023-01-11T18:15:47.931Z,98348.38
2023-01-11T18:18:47.514Z,98356.19
2023-01-11T18:21:41.786Z,98359.81
2023-01-11T18:24:43.374Z,98356.63
2023-01-11T18:27:34.254Z,98364.69
2023-01-11T18:30:40.955Z,98357.44
2023-01-11T18:33:32.532Z,98362.88
2023-01-11T18:36:22.834Z,98369.97
2023-01-11T18:39:13.896Z,98376.50
2023-01-11T18:42:08.929Z,98382.22
2023-01-11T18:44:58.194Z,98376.63
2023-01-11T18:47:46.036Z,98379.28
2023-01-11T18:50:34.189Z,98386.53
2023-01-11T18:53:23.726Z,98389.56
2023-01-11T18:56:11.789Z,98394.59
2023-01-11T18:59:01.260Z,98405.69
2023-01-11T19:01:58.898Z,98410.16
2023-01-11T19:04:57.665Z,98418.47
2023-01-11T19:07:45.759Z,98423.06
2023-01-11T19:10:34.609Z,98416.22
2023-01-11T19:13:22.977Z,98413.97
2023-01-11T19:16:11.051Z,98415.81
2023-01-11T19:19:00.280Z,98420.91
2023-01-11T19:21:48.197Z,98433.03
2023-01-11T19:24:36.362Z,98426.06
2023-01-11T19:27:24.439Z,98434.97
2023-01-11T19:30:13.276Z,98432.59
2023-01-11T19:33:01.203Z,98441.25
2023-01-11T19:35:50.661Z,98432.59
2023-01-11T19:38:39.817Z,98442.56
2023-01-11T19:41:27.740Z,98438.53
2023-01-11T19:44:15.752Z,98445.34
2023-01-11T19:47:13.282Z,98446.47
2023-01-11T19:50:01.631Z,98457.88
2023-01-11T19:52:51.477Z,98463.41
2023-01-11T19:55:39.346Z,98471.47
2023-01-11T19:58:27.890Z,98471.59
2023-01-11T20:01:15.998Z,98470.91
2023-01-11T20:04:04.589Z,98482.56
2023-01-11T20:06:53.803Z,98476.44
2023-01-11T20:09:43.517Z,98480.31
2023-01-11T20:12:31.654Z,98483.22
2023-01-11T20:15:19.638Z,98484.19
2023-01-11T20:18:07.479Z,98486.81
2023-01-11T20:20:58.518Z,98492.13
2023-01-11T20:23:46.751Z,98493.91
2023-01-11T20:26:36.486Z,98500.28
2023-01-11T20:29:26.368Z,98499.38
2023-01-11T20:32:39.038Z,98501.91
2023-01-11T20:35:21.828Z,98501.06
2023-01-11T20:38:10.140Z,98502.28
2023-01-11T20:40:58.282Z,98505.88
2023-01-11T20:43:50.493Z,98510.22
2023-01-11T20:46:43.069Z,98524.25
2023-01-11T20:49:31.306Z,98521.03
2023-01-11T20:52:20.908Z,98517.91
2023-01-11T20:55:09.809Z,98518.50
2023-01-11T20:57:59.598Z,98516.97
2023-01-11T21:01:10.127Z,98524.16
2023-01-11T21:04:15.270Z,98533.31
2023-01-11T21:07:06.413Z,98533.56
2023-01-11T21:09:54.386Z,98533.31
2023-01-11T21:15:34.121Z,98524.19
2023-01-11T21:18:24.809Z,98524.84
2023-01-11T21:21:14.595Z,98526.03
2023-01-11T21:24:04.109Z,98540.59
2023-01-11T21:26:51.916Z,98552.69
2023-01-11T21:29:40.124Z,98554.88
2023-01-11T21:32:28.736Z,98570.13
2023-01-11T21:35:23.709Z,98567.59
2023-01-11T21:38:11.837Z,98570.72
2023-01-11T21:41:08.000Z,98578.28
2023-01-11T21:43:57.760Z,98587.53
2023-01-11T21:46:47.936Z,98587.28
2023-01-11T21:49:36.007Z,98592.69
2023-01-11T21:52:28.115Z,98594.25
2023-01-11T21:55:17.192Z,98581.78
2023-01-11T21:58:05.028Z,98587.91
2023-01-11T22:01:04.775Z,98592.56
2023-01-11T22:04:06.571Z,98595.47
2023-01-11T22:07:07.255Z,98582.03
2023-01-11T22:10:04.963Z,98572.06
2023-01-11T22:12:53.660Z,98566.41
2023-01-11T22:15:41.581Z,98564.84
2023-01-11T22:18:31.256Z,98566.25
2023-01-11T22:21:20.647Z,98569.44
2023-01-11T22:24:13.192Z,98573.00
2023-01-11T22:27:02.645Z,98582.63
2023-01-11T22:29:52.206Z,98588.16
2023-01-11T22:32:40.257Z,98584.06
2023-01-11T22:35:28.239Z,98588.88
2023-01-11T22:38:15.949Z,98589.13
2023-01-11T22:41:05.615Z,98595.47
2023-01-11T22:43:56.153Z,98595.84
2023-01-11T22:46:47.606Z,98609.28
2023-01-11T22:49:35.748Z,98614.78
2023-01-11T22:52:23.598Z,98613.25
2023-01-11T22:55:11.479Z,98610.22
2023-01-11T22:58:00.677Z,98600.78
2023-01-11T23:00:54.810Z,98603.75
2023-01-11T23:03:43.046Z,98590.06
2023-01-11T23:06:32.965Z,98600.00
2023-01-11T23:09:21.099Z,98590.75
2023-01-11T23:12:27.368Z,98582.25
2023-01-11T23:15:14.937Z,98573.63
2023-01-11T23:18:04.284Z,98576.50
2023-01-11T23:20:54.173Z,98575.91
2023-01-11T23:23:42.642Z,98575.91
2023-01-11T23:26:30.870Z,98580.94
2023-01-11T23:29:19.080Z,98580.56
2023-01-11T23:32:07.405Z,98583.59
2023-01-11T23:34:56.886Z,98599.03
2023-01-11T23:37:44.929Z,98600.00
2023-01-11T23:40:53.681Z,98589.91
2023-01-11T23:43:44.189Z,98588.59
2023-01-11T23:46:49.856Z,98590.50
2023-01-11T23:49:37.889Z,98590.72
2023-01-11T23:52:29.050Z,98601.78
2023-01-11T23:55:17.074Z,98595.03
2023-01-11T23:58:10.550Z,98602.00
